Time,TemperatureF,DewpointF,PressureIn,WindDirection,WindDirectionDegrees,WindSpeedMPH,WindSpeedGustMPH,Humidity,HourlyPrecipIn,Conditions,Clouds,dailyrainin,SolarRadiationWatts/m^2,SoftwareType,DateUTC
2013-12-12 00:02:00,30.3,27.4,30.31,SW,236,1.0,2.0,89,0.00,,,0.00,0,Wunderground v.1.15,2013-12-12 05:02:00,
2013-12-12 00:04:00,30.3,27.4,30.31,SW,236,0.0,2.0,89,0.00,,,0.00,0,Wunderground v.1.15,2013-12-12 05:04:00,
2013-12-12 00:10:00,30.0,27.2,30.31,SW,236,0.0,2.0,89,0.00,,,0.00,0,Wunderground v.1.15,2013-12-12 05:10:00,
2013-12-12 00:12:00,30.0,27.2,30.31,SW,236,0.0,0.0,89,0.00,,,0.00,0,Wunderground v.1.15,2013-12-12 05:12:00,
2013-12-12 00:16:00,29.8,27.0,30.31,SW,236,0.0,0.0,89,0.00,,,0.00,0,Wunderground v.1.15,2013-12-12 05:16:00,
2013-12-12 00:18:00,29.8,27.0,30.31,SW,236,0.0,0.0,89,0.00,,,0.00,0,Wunderground v.1.15,2013-12-12 05:18:00,
2013-12-12 00:24:00,29.7,27.1,30.31,SW,236,0.0,0.0,90,0.00,,,0.00,0,Wunderground v.1.15,2013-12-12 05:24:00,
2013-12-12 00:30:00,29.5,26.9,30.30,SW,236,0.0,0.0,90,0.00,,,0.00,0,Wunderground v.1.15,2013-12-12 05:30:00,
2013-12-12 00:36:00,29.4,26.8,30.30,SW,236,0.0,0.0,90,0.00,,,0.00,0,Wunderground v.1.15,2013-12-12 05:36:00,
2013-12-12 00:42:00,29.1,26.5,30.30,SW,236,0.0,0.0,90,0.00,,,0.00,0,Wunderground v.1.15,2013-12-12 05:42:00,
2013-12-12 00:48:00,29.0,26.4,30.30,SW,236,0.0,0.0,90,0.00,,,0.00,0,Wunderground v.1.15,2013-12-12 05:48:00,
2013-12-12 00:54:00,29.0,26.7,30.30,SW,236,0.0,0.0,91,0.00,,,0.00,0,Wunderground v.1.15,2013-12-12 05:54:00,
2013-12-12 00:56:00,29.0,26.7,30.30,SW,236,0.0,0.0,91,0.00,,,0.00,0,Wunderground v.1.15,2013-12-12 05:56:00,
2013-12-12 01:02:00,29.0,26.7,30.30,SW,236,0.0,0.0,91,0.00,,,0.00,0,Wunderground v.1.15,2013-12-12 06:02:00,
2013-12-12 01:08:00,29.0,26.7,30.30,SW,236,0.0,0.0,91,0.00,,,0.00,0,Wunderground v.1.15,2013-12-12 06:08:00,
2013-12-12 01:14:00,29.0,26.7,30.30,SW,236,0.0,0.0,91,0.00,,,0.00,0,Wunderground v.1.15,2013-12-12 06:14:00,
2013-12-12 01:20:00,28.7,26.4,30.30,SW,236,0.0,0.0,91,0.00,,,0.00,0,Wunderground v.1.15,2013-12-12 06:20:00,
2013-12-12 01:26:00,28.5,26.2,30.30,SW,236,0.0,0.0,91,0.00,,,0.00,0,Wunderground v.1.15,2013-12-12 06:26:00,
2013-12-12 01:32:00,28.4,26.1,30.29,SW,236,0.0,0.0,91,0.00,,,0.00,0,Wunderground v.1.15,2013-12-12 06:32:00,
2013-12-12 01:38:00,28.4,26.4,30.29,SW,236,0.0,0.0,92,0.00,,,0.00,0,Wunderground v.1.15,2013-12-12 06:38:00,
2013-12-12 01:44:00,28.4,26.4,30.30,SW,236,0.0,0.0,92,0.00,,,0.00,0,Wunderground v.1.15,2013-12-12 06:44:00,
2013-12-12 01:51:00,28.4,26.4,30.30,SW,236,0.0,0.0,92,0.00,,,0.00,0,Wunderground v.1.15,2013-12-12 06:51:00,
2013-12-12 01:56:00,28.2,26.2,30.30,SW,236,0.0,0.0,92,0.00,,,0.00,0,Wunderground v.1.15,2013-12-12 06:56:00,
2013-12-12 02:02:00,28.2,26.2,30.31,SW,236,0.0,0.0,92,0.00,,,0.00,0,Wunderground v.1.15,2013-12-12 07:02:00,
2013-12-12 02:08:00,28.2,26.4,30.31,SW,236,0.0,0.0,93,0.00,,,0.00,0,Wunderground v.1.15,2013-12-12 07:08:00,
2013-12-12 02:14:00,28.1,26.3,30.31,SW,236,0.0,0.0,93,0.00,,,0.00,0,Wunderground v.1.15,2013-12-12 07:14:00,
2013-12-12 02:20:00,28.1,26.3,30.31,SW,236,0.0,0.0,93,0.00,,,0.00,0,Wunderground v.1.15,2013-12-12 07:20:00,
2013-12-12 02:26:00,27.9,26.1,30.31,SW,236,0.0,0.0,93,0.00,,,0.00,0,Wunderground v.1.15,2013-12-12 07:26:00,
2013-12-12 02:32:00,27.9,26.1,30.30,SW,236,1.0,2.0,93,0.00,,,0.00,0,Wunderground v.1.15,2013-12-12 07:32:00,
2013-12-12 02:38:00,27.9,26.1,30.30,SW,236,1.0,2.0,93,0.00,,,0.00,0,Wunderground v.1.15,2013-12-12 07:38:00,
2013-12-12 02:44:00,28.1,26.3,30.31,SW,236,0.0,1.0,93,0.00,,,0.00,0,Wunderground v.1.15,2013-12-12 07:44:00,
2013-12-12 02:50:00,27.9,26.1,30.31,SW,236,0.0,0.0,93,0.00,,,0.00,0,Wunderground v.1.15,2013-12-12 07:50:00,
2013-12-12 02:56:00,27.8,26.0,30.31,SW,236,0.0,0.0,93,0.00,,,0.00,0,Wunderground v.1.15,2013-12-12 07:56:00,
2013-12-12 03:02:00,27.6,25.8,30.31,SW,236,0.0,0.0,93,0.00,,,0.00,0,Wunderground v.1.15,2013-12-12 08:02:00,
2013-12-12 03:08:00,27.5,26.0,30.31,SW,236,0.0,2.0,94,0.00,,,0.00,0,Wunderground v.1.15,2013-12-12 08:08:00,
2013-12-12 03:14:00,27.5,26.0,30.30,NW,323,1.0,5.0,94,0.00,,,0.00,0,Wunderground v.1.15,2013-12-12 08:14:00,
2013-12-12 03:20:00,27.5,26.0,30.30,NW,323,2.0,2.0,94,0.00,,,0.00,0,Wunderground v.1.15,2013-12-12 08:20:00,
2013-12-12 03:26:00,27.5,26.0,30.30,NW,322,2.0,3.0,94,0.00,,,0.00,0,Wunderground v.1.15,2013-12-12 08:26:00,
2013-12-12 03:32:00,27.6,26.1,30.30,NW,322,2.0,2.0,94,0.00,,,0.00,0,Wunderground v.1.15,2013-12-12 08:32:00,
2013-12-12 03:38:00,27.6,26.1,30.30,NW,322,2.0,2.0,94,0.00,,,0.00,0,Wunderground v.1.15,2013-12-12 08:38:00,
2013-12-12 03:44:00,27.9,26.4,30.30,NW,322,2.0,3.0,94,0.00,,,0.00,0,Wunderground v.1.15,2013-12-12 08:44:00,
2013-12-12 03:50:00,28.2,27.0,30.30,NNW,328,2.0,5.0,95,0.00,,,0.00,0,Wunderground v.1.15,2013-12-12 08:50:00,
2013-12-12 03:56:00,28.4,27.2,30.30,NNW,328,3.0,3.0,95,0.00,,,0.00,0,Wunderground v.1.15,2013-12-12 08:56:00,
2013-12-12 04:02:00,28.2,27.0,30.30,NNW,328,3.0,3.0,95,0.00,,,0.00,0,Wunderground v.1.15,2013-12-12 09:02:00,
2013-12-12 04:08:00,28.2,27.0,30.30,NNW,328,2.0,3.0,95,0.00,,,0.00,0,Wunderground v.1.15,2013-12-12 09:08:00,
2013-12-12 04:14:00,28.2,27.0,30.30,NNW,328,2.0,2.0,95,0.00,,,0.00,0,Wunderground v.1.15,2013-12-12 09:14:00,
2013-12-12 04:20:00,28.2,27.0,30.30,NNW,329,2.0,4.0,95,0.00,,,0.00,0,Wunderground v.1.15,2013-12-12 09:20:00,
2013-12-12 04:26:00,28.4,27.2,30.30,NNW,328,2.0,2.0,95,0.00,,,0.00,0,Wunderground v.1.15,2013-12-12 09:26:00,
2013-12-12 04:32:00,28.4,27.2,30.30,NNW,328,2.0,2.0,95,0.00,,,0.00,0,Wunderground v.1.15,2013-12-12 09:32:00,
2013-12-12 04:38:00,28.2,27.0,30.30,NNW,328,2.0,2.0,95,0.00,,,0.00,0,Wunderground v.1.15,2013-12-12 09:38:00,
2013-12-12 04:44:00,28.2,27.0,30.30,NNW,328,2.0,2.0,95,0.00,,,0.00,0,Wunderground v.1.15,2013-12-12 09:44:00,
2013-12-12 04:50:00,28.2,27.0,30.30,NNW,328,1.0,2.0,95,0.00,,,0.00,0,Wunderground v.1.15,2013-12-12 09:50:00,
2013-12-12 04:56:00,28.1,26.6,30.30,NNW,328,0.0,1.0,94,0.00,,,0.00,0,Wunderground v.1.15,2013-12-12 09:56:00,
2013-12-12 05:02:00,27.8,26.3,30.31,NNW,328,0.0,0.0,94,0.00,,,0.00,0,Wunderground v.1.15,2013-12-12 10:02:00,
2013-12-12 05:08:00,27.5,26.0,30.31,NNW,328,0.0,0.0,94,0.00,,,0.00,0,Wunderground v.1.15,2013-12-12 10:08:00,
2013-12-12 05:14:00,27.2,25.7,30.31,NNW,328,0.0,0.0,94,0.00,,,0.00,0,Wunderground v.1.15,2013-12-12 10:14:00,
2013-12-12 05:20:00,27.0,25.5,30.31,NNW,328,0.0,0.0,94,0.00,,,0.00,0,Wunderground v.1.15,2013-12-12 10:20:00,
2013-12-12 05:26:00,26.9,25.4,30.31,NNW,328,1.0,2.0,94,0.00,,,0.00,0,Wunderground v.1.15,2013-12-12 10:26:00,
2013-12-12 05:32:00,26.7,25.2,30.30,NNW,329,2.0,2.0,94,0.00,,,0.00,0,Wunderground v.1.15,2013-12-12 10:32:00,
2013-12-12 05:38:00,26.9,25.7,30.30,NW,315,2.0,2.0,95,0.00,,,0.00,0,Wunderground v.1.15,2013-12-12 10:38:00,
2013-12-12 05:44:00,27.0,25.8,30.31,North,353,2.0,5.0,95,0.00,,,0.00,0,Wunderground v.1.15,2013-12-12 10:44:00,
2013-12-12 05:50:00,27.2,26.0,30.31,NNW,339,2.0,5.0,95,0.00,,,0.00,0,Wunderground v.1.15,2013-12-12 10:50:00,
2013-12-12 05:56:00,27.5,26.3,30.31,NNW,337,3.0,5.0,95,0.00,,,0.00,0,Wunderground v.1.15,2013-12-12 10:56:00,
2013-12-12 06:02:00,27.9,26.7,30.31,NNW,336,2.0,3.0,95,0.00,,,0.00,0,Wunderground v.1.15,2013-12-12 11:02:00,
2013-12-12 06:08:00,28.2,26.7,30.31,NNW,337,2.0,4.0,94,0.00,,,0.00,0,Wunderground v.1.15,2013-12-12 11:08:00,
2013-12-12 06:14:00,28.5,26.7,30.31,NNW,337,2.0,2.0,93,0.00,,,0.00,0,Wunderground v.1.15,2013-12-12 11:14:00,
2013-12-12 06:20:00,28.7,26.9,30.31,NNW,337,1.0,2.0,93,0.00,,,0.00,0,Wunderground v.1.15,2013-12-12 11:20:00,
2013-12-12 06:26:00,28.5,26.5,30.31,North,352,2.0,2.0,92,0.00,,,0.00,0,Wunderground v.1.15,2013-12-12 11:26:00,
2013-12-12 06:32:00,28.5,26.2,30.32,North,356,2.0,2.0,91,0.00,,,0.00,0,Wunderground v.1.15,2013-12-12 11:32:00,
2013-12-12 06:38:00,28.5,25.9,30.32,North,349,2.0,2.0,90,0.00,,,0.00,0,Wunderground v.1.15,2013-12-12 11:38:00,
2013-12-12 06:44:00,28.7,25.9,30.32,NNW,336,2.0,3.0,89,0.00,,,0.00,0,Wunderground v.1.15,2013-12-12 11:44:00,
2013-12-12 06:50:00,28.7,25.6,30.32,NW,315,2.0,3.0,88,0.00,,,0.00,0,Wunderground v.1.15,2013-12-12 11:50:00,
2013-12-12 06:56:00,28.5,25.1,30.32,North,0,1.0,5.0,87,0.00,,,0.00,0,Wunderground v.1.15,2013-12-12 11:56:00,
2013-12-12 07:02:00,28.8,25.1,30.34,North,354,3.0,4.0,86,0.00,,,0.00,0,Wunderground v.1.15,2013-12-12 12:02:00,
2013-12-12 07:08:00,29.4,25.2,30.34,NNW,340,4.0,6.0,84,0.00,,,0.00,0,Wunderground v.1.15,2013-12-12 12:08:00,
2013-12-12 07:14:00,30.0,25.2,30.35,NNW,339,4.0,7.0,82,0.00,,,0.00,0,Wunderground v.1.15,2013-12-12 12:14:00,
2013-12-12 07:21:00,30.4,24.7,30.35,North,353,5.0,7.0,79,0.00,,,0.00,5,Wunderground v.1.15,2013-12-12 12:21:00,
2013-12-12 07:26:00,30.9,24.5,30.35,North,359,5.0,8.0,77,0.00,,,0.00,7,Wunderground v.1.15,2013-12-12 12:26:00,
2013-12-12 07:32:00,31.6,24.6,30.36,NNE,17,4.0,5.0,75,0.00,,,0.00,9,Wunderground v.1.15,2013-12-12 12:32:00,
2013-12-12 07:38:00,31.8,24.1,30.36,NW,326,4.0,5.0,73,0.00,,,0.00,12,Wunderground v.1.15,2013-12-12 12:38:00,
2013-12-12 07:44:00,31.9,23.9,30.36,North,357,5.0,7.0,72,0.00,,,0.00,14,Wunderground v.1.15,2013-12-12 12:44:00,
2013-12-12 07:50:00,32.5,23.8,30.36,North,359,5.0,7.0,70,0.00,,,0.00,18,Wunderground v.1.15,2013-12-12 12:50:00,
2013-12-12 07:56:00,32.8,23.7,30.36,North,359,5.0,9.0,69,0.00,,,0.00,19,Wunderground v.1.15,2013-12-12 12:56:00,
2013-12-12 08:02:00,33.2,23.8,30.37,North,356,6.0,12.0,68,0.00,,,0.00,21,Wunderground v.1.15,2013-12-12 13:02:00,
2013-12-12 08:08:00,33.7,23.5,30.37,NW,315,7.0,12.0,66,0.00,,,0.00,23,Wunderground v.1.15,2013-12-12 13:08:00,
2013-12-12 08:14:00,34.1,23.9,30.39,NNW,347,7.0,7.0,66,0.00,,,0.00,25,Wunderground v.1.15,2013-12-12 13:14:00,
2013-12-12 08:20:00,34.3,23.7,30.39,North,352,7.0,8.0,65,0.00,,,0.00,26,Wunderground v.1.15,2013-12-12 13:20:00,
2013-12-12 08:26:00,34.6,24.0,30.39,WNW,301,8.0,8.0,65,0.00,,,0.00,28,Wunderground v.1.15,2013-12-12 13:26:00,
2013-12-12 08:32:00,35.0,23.3,30.40,North,349,9.0,14.0,62,0.00,,,0.00,28,Wunderground v.1.15,2013-12-12 13:32:00,
2013-12-12 08:38:00,35.3,23.6,30.40,NNW,336,9.0,14.0,62,0.00,,,0.00,30,Wunderground v.1.15,2013-12-12 13:38:00,
2013-12-12 08:44:00,35.5,23.8,30.41,NE,34,9.0,10.0,62,0.00,,,0.00,32,Wunderground v.1.15,2013-12-12 13:44:00,
2013-12-12 08:50:00,35.8,23.3,30.41,North,359,10.0,11.0,60,0.00,,,0.00,33,Wunderground v.1.15,2013-12-12 13:50:00,
2013-12-12 08:56:00,35.9,23.0,30.41,WNW,288,9.0,11.0,59,0.00,,,0.00,33,Wunderground v.1.15,2013-12-12 13:56:00,
2013-12-12 09:02:00,36.2,23.2,30.42,NNW,335,8.0,11.0,59,0.00,,,0.00,238,Wunderground v.1.15,2013-12-12 14:02:00,
2013-12-12 09:08:00,37.2,22.9,30.42,NE,35,8.0,11.0,56,0.00,,,0.00,262,Wunderground v.1.15,2013-12-12 14:08:00,
2013-12-12 09:14:00,38.0,22.8,30.42,North,359,7.0,8.0,54,0.00,,,0.00,278,Wunderground v.1.15,2013-12-12 14:14:00,
2013-12-12 09:20:00,38.3,22.6,30.42,NW,313,7.0,7.0,53,0.00,,,0.00,301,Wunderground v.1.15,2013-12-12 14:20:00,
2013-12-12 09:26:00,38.5,22.4,30.42,NNW,340,8.0,8.0,52,0.00,,,0.00,292,Wunderground v.1.15,2013-12-12 14:26:00,
2013-12-12 09:32:00,38.2,22.1,30.43,North,0,8.0,13.0,52,0.00,,,0.00,39,Wunderground v.1.15,2013-12-12 14:32:00,
2013-12-12 09:38:00,38.0,21.9,30.43,NW,309,9.0,13.0,52,0.00,,,0.00,40,Wunderground v.1.15,2013-12-12 14:38:00,
2013-12-12 09:44:00,37.9,20.9,30.43,North,354,10.0,12.0,50,0.00,,,0.00,40,Wunderground v.1.15,2013-12-12 14:44:00,
2013-12-12 09:50:00,38.0,21.0,30.44,North,6,11.0,11.0,50,0.00,,,0.00,40,Wunderground v.1.15,2013-12-12 14:50:00,
2013-12-12 09:56:00,38.3,21.3,30.44,NNW,336,10.0,12.0,50,0.00,,,0.00,40,Wunderground v.1.15,2013-12-12 14:56:00,
2013-12-12 10:02:00,38.5,21.5,30.44,NNW,339,8.0,10.0,50,0.00,,,0.00,387,Wunderground v.1.15,2013-12-12 15:02:00,
2013-12-12 10:08:00,39.2,22.1,30.44,NW,313,7.0,14.0,50,0.00,,,0.00,396,Wunderground v.1.15,2013-12-12 15:08:00,
2013-12-12 10:14:00,40.1,22.0,30.44,North,356,8.0,8.0,48,0.00,,,0.00,408,Wunderground v.1.15,2013-12-12 15:14:00,
2013-12-12 10:20:00,40.6,22.4,30.44,NW,313,8.0,8.0,48,0.00,,,0.00,421,Wunderground v.1.15,2013-12-12 15:20:00,
2013-12-12 10:26:00,40.3,20.6,30.44,NE,34,7.0,14.0,45,0.00,,,0.00,433,Wunderground v.1.15,2013-12-12 15:26:00,
2013-12-12 10:32:00,40.9,22.2,30.44,NNE,28,7.0,8.0,47,0.00,,,0.00,442,Wunderground v.1.15,2013-12-12 15:32:00,
2013-12-12 10:38:00,41.3,22.6,30.44,NNW,328,7.0,14.0,47,0.00,,,0.00,449,Wunderground v.1.15,2013-12-12 15:38:00,
2013-12-12 10:44:00,40.9,21.2,30.44,NW,313,8.0,8.0,45,0.00,,,0.00,459,Wunderground v.1.15,2013-12-12 15:44:00,
2013-12-12 10:50:00,41.2,20.9,30.44,NNW,342,7.0,13.0,44,0.00,,,0.00,466,Wunderground v.1.15,2013-12-12 15:50:00,
2013-12-12 10:56:00,41.3,21.0,30.44,NNE,17,8.0,13.0,44,0.00,,,0.00,475,Wunderground v.1.15,2013-12-12 15:56:00,
2013-12-12 11:02:00,41.3,20.5,30.42,NW,313,7.0,8.0,43,0.00,,,0.00,482,Wunderground v.1.15,2013-12-12 16:02:00,
2013-12-12 11:08:00,41.9,21.5,30.42,NNE,18,6.0,8.0,44,0.00,,,0.00,484,Wunderground v.1.15,2013-12-12 16:08:00,
2013-12-12 11:14:00,42.3,20.2,30.42,NE,54,5.0,7.0,41,0.00,,,0.00,494,Wunderground v.1.15,2013-12-12 16:14:00,
2013-12-12 11:20:00,42.8,21.3,30.42,NNE,31,6.0,6.0,42,0.00,,,0.00,498,Wunderground v.1.15,2013-12-12 16:20:00,
2013-12-12 11:26:00,42.9,20.8,30.42,NNW,329,5.0,10.0,41,0.00,,,0.00,503,Wunderground v.1.15,2013-12-12 16:26:00,
2013-12-12 11:32:00,42.5,19.8,30.41,NE,38,6.0,6.0,40,0.00,,,0.00,507,Wunderground v.1.15,2013-12-12 16:32:00,
2013-12-12 11:38:00,42.6,21.6,30.41,NNW,339,6.0,9.0,43,0.00,,,0.00,514,Wunderground v.1.15,2013-12-12 16:38:00,
2013-12-12 11:44:00,42.8,20.7,30.40,NNE,18,5.0,6.0,41,0.00,,,0.00,516,Wunderground v.1.15,2013-12-12 16:44:00,
2013-12-12 11:50:00,43.9,21.7,30.40,NNW,342,5.0,5.0,41,0.00,,,0.00,517,Wunderground v.1.15,2013-12-12 16:50:00,
2013-12-12 11:56:00,43.1,21.0,30.40,NE,44,6.0,10.0,41,0.00,,,0.00,519,Wunderground v.1.15,2013-12-12 16:56:00,
2013-12-12 12:02:00,43.5,21.3,30.39,North,0,6.0,6.0,41,0.00,,,0.00,519,Wunderground v.1.15,2013-12-12 17:02:00,
2013-12-12 12:08:00,43.9,21.1,30.39,NW,326,4.0,6.0,40,0.00,,,0.00,519,Wunderground v.1.15,2013-12-12 17:08:00,
2013-12-12 12:14:00,43.5,20.2,30.38,NW,315,3.0,6.0,39,0.00,,,0.00,521,Wunderground v.1.15,2013-12-12 17:14:00,
2013-12-12 12:20:00,43.9,20.5,30.38,NNW,335,5.0,5.0,39,0.00,,,0.00,521,Wunderground v.1.15,2013-12-12 17:20:00,
2013-12-12 12:26:00,44.1,20.7,30.38,NNW,342,4.0,9.0,39,0.00,,,0.00,519,Wunderground v.1.15,2013-12-12 17:26:00,
2013-12-12 12:32:00,44.2,20.8,30.38,WSW,240,3.0,7.0,39,0.00,,,0.00,519,Wunderground v.1.15,2013-12-12 17:32:00,
2013-12-12 12:38:00,44.5,22.2,30.38,NNW,330,3.0,7.0,41,0.00,,,0.00,516,Wunderground v.1.15,2013-12-12 17:38:00,
2013-12-12 12:44:00,44.5,22.2,30.38,NNW,346,4.0,4.0,41,0.00,,,0.00,516,Wunderground v.1.15,2013-12-12 17:44:00,
2013-12-12 12:50:00,43.8,21.6,30.38,North,359,4.0,7.0,41,0.00,,,0.00,516,Wunderground v.1.15,2013-12-12 17:50:00,
2013-12-12 12:56:00,43.5,21.3,30.38,NW,316,4.0,7.0,41,0.00,,,0.00,116,Wunderground v.1.15,2013-12-12 17:56:00,
2013-12-12 13:02:00,43.2,21.1,30.37,NNW,342,5.0,5.0,41,0.00,,,0.00,74,Wunderground v.1.15,2013-12-12 18:02:00,
2013-12-12 13:08:00,43.3,21.1,30.37,West,263,6.0,10.0,41,0.00,,,0.00,74,Wunderground v.1.15,2013-12-12 18:08:00,
2013-12-12 13:14:00,43.3,21.1,30.36,SSW,203,4.0,6.0,41,0.00,,,0.00,44,Wunderground v.1.15,2013-12-12 18:14:00,
2013-12-12 13:20:00,43.3,17.4,30.36,NNW,344,5.0,7.0,35,0.00,,,0.00,48,Wunderground v.1.15,2013-12-12 18:20:00,
2013-12-12 13:26:00,43.6,17.0,30.36,North,4,6.0,10.0,34,0.00,,,0.00,56,Wunderground v.1.15,2013-12-12 18:26:00,
2013-12-12 13:32:00,44.1,18.8,30.36,North,356,4.0,6.0,36,0.00,,,0.00,56,Wunderground v.1.15,2013-12-12 18:32:00,
2013-12-12 13:38:00,44.2,16.2,30.36,WNW,299,5.0,10.0,32,0.00,,,0.00,128,Wunderground v.1.15,2013-12-12 18:38:00,
2013-12-12 13:44:00,43.9,13.6,30.36,NW,320,6.0,11.0,29,0.00,,,0.00,40,Wunderground v.1.15,2013-12-12 18:44:00,
2013-12-12 13:50:00,43.6,14.2,30.36,NNW,343,8.0,8.0,30,0.00,,,0.00,151,Wunderground v.1.15,2013-12-12 18:50:00,
2013-12-12 13:56:00,43.5,14.1,30.36,NNW,336,7.0,10.0,30,0.00,,,0.00,40,Wunderground v.1.15,2013-12-12 18:56:00,
2013-12-12 14:02:00,43.6,14.2,30.36,NNE,13,5.0,7.0,30,0.00,,,0.00,51,Wunderground v.1.15,2013-12-12 19:02:00,
2013-12-12 14:08:00,43.8,13.6,30.36,North,353,7.0,10.0,29,0.00,,,0.00,40,Wunderground v.1.15,2013-12-12 19:08:00,
2013-12-12 14:14:00,43.6,11.8,30.36,North,352,6.0,10.0,27,0.00,,,0.00,56,Wunderground v.1.15,2013-12-12 19:14:00,
2013-12-12 14:20:00,43.8,12.8,30.36,North,359,6.0,8.0,28,0.00,,,0.00,95,Wunderground v.1.15,2013-12-12 19:20:00,
2013-12-12 14:26:00,43.5,11.7,30.36,NNW,346,7.0,12.0,27,0.00,,,0.00,83,Wunderground v.1.15,2013-12-12 19:26:00,
2013-12-12 14:32:00,43.3,10.7,30.37,NW,305,7.0,12.0,26,0.00,,,0.00,134,Wunderground v.1.15,2013-12-12 19:32:00,
2013-12-12 14:38:00,43.5,10.8,30.37,North,350,6.0,12.0,26,0.00,,,0.00,345,Wunderground v.1.15,2013-12-12 19:38:00,
2013-12-12 14:44:00,43.6,10.9,30.36,North,359,7.0,12.0,26,0.00,,,0.00,331,Wunderground v.1.15,2013-12-12 19:44:00,
2013-12-12 14:50:00,43.8,11.9,30.36,North,350,7.0,7.0,27,0.00,,,0.00,327,Wunderground v.1.15,2013-12-12 19:50:00,
2013-12-12 14:56:00,43.8,11.9,30.36,NNE,20,6.0,7.0,27,0.00,,,0.00,310,Wunderground v.1.15,2013-12-12 19:56:00,
2013-12-12 15:02:00,43.6,11.8,30.36,NNE,13,5.0,5.0,27,0.00,,,0.00,40,Wunderground v.1.15,2013-12-12 20:02:00,
2013-12-12 15:08:00,43.3,11.5,30.36,North,352,6.0,10.0,27,0.00,,,0.00,51,Wunderground v.1.15,2013-12-12 20:08:00,
2013-12-12 15:14:00,43.3,13.1,30.35,North,6,6.0,7.0,29,0.00,,,0.00,32,Wunderground v.1.15,2013-12-12 20:14:00,
2013-12-12 15:21:00,43.2,13.0,30.35,WNW,294,5.0,7.0,29,0.00,,,0.00,48,Wunderground v.1.15,2013-12-12 20:21:00,
2013-12-12 15:26:00,43.1,13.7,30.35,North,0,6.0,7.0,30,0.00,,,0.00,51,Wunderground v.1.15,2013-12-12 20:26:00,
2013-12-12 15:32:00,42.8,13.5,30.36,NNE,25,6.0,8.0,30,0.00,,,0.00,32,Wunderground v.1.15,2013-12-12 20:32:00,
2013-12-12 15:38:00,42.6,13.3,30.36,North,10,7.0,8.0,30,0.00,,,0.00,35,Wunderground v.1.15,2013-12-12 20:38:00,
2013-12-12 15:44:00,42.5,12.4,30.37,North,352,7.0,8.0,29,0.00,,,0.00,32,Wunderground v.1.15,2013-12-12 20:44:00,
2013-12-12 15:50:00,42.3,13.0,30.37,NNW,337,7.0,7.0,30,0.00,,,0.00,26,Wunderground v.1.15,2013-12-12 20:50:00,
2013-12-12 15:56:00,42.2,12.9,30.37,North,352,5.0,7.0,30,0.00,,,0.00,26,Wunderground v.1.15,2013-12-12 20:56:00,
2013-12-12 16:02:00,42.2,14.4,30.38,NW,319,4.0,4.0,32,0.00,,,0.00,25,Wunderground v.1.15,2013-12-12 21:02:00,
2013-12-12 16:08:00,42.1,14.3,30.38,WNW,301,4.0,10.0,32,0.00,,,0.00,25,Wunderground v.1.15,2013-12-12 21:08:00,
2013-12-12 16:14:00,41.9,15.5,30.38,NW,322,5.0,5.0,34,0.00,,,0.00,23,Wunderground v.1.15,2013-12-12 21:14:00,
2013-12-12 16:20:00,41.8,15.4,30.38,NNW,347,4.0,5.0,34,0.00,,,0.00,26,Wunderground v.1.15,2013-12-12 21:20:00,
2013-12-12 16:26:00,41.5,15.2,30.38,North,0,4.0,5.0,34,0.00,,,0.00,19,Wunderground v.1.15,2013-12-12 21:26:00,
2013-12-12 16:28:00,41.5,15.2,30.38,North,0,3.0,5.0,34,0.00,,,0.00,18,Wunderground v.1.15,2013-12-12 21:28:00,
2013-12-12 16:34:00,41.3,15.7,30.38,NNW,346,3.0,6.0,35,0.00,,,0.00,16,Wunderground v.1.15,2013-12-12 21:34:00,
2013-12-12 16:41:00,41.1,16.1,30.38,North,359,4.0,4.0,36,0.00,,,0.00,14,Wunderground v.1.15,2013-12-12 21:41:00,
2013-12-12 16:46:00,40.9,16.0,30.39,NNW,329,3.0,4.0,36,0.00,,,0.00,12,Wunderground v.1.15,2013-12-12 21:46:00,
2013-12-12 16:52:00,40.5,16.2,30.39,NNW,335,2.0,2.0,37,0.00,,,0.00,11,Wunderground v.1.15,2013-12-12 21:52:00,
2013-12-12 16:58:00,40.2,16.6,30.39,NNW,337,2.0,2.0,38,0.00,,,0.00,7,Wunderground v.1.15,2013-12-12 21:58:00,
2013-12-12 17:04:00,39.8,16.8,30.39,NNW,337,2.0,2.0,39,0.00,,,0.00,5,Wunderground v.1.15,2013-12-12 22:04:00,
2013-12-12 17:10:00,39.5,17.7,30.39,NNW,337,1.0,1.0,41,0.00,,,0.00,0,Wunderground v.1.15,2013-12-12 22:10:00,
2013-12-12 17:16:00,39.1,17.4,30.40,NNW,337,1.0,1.0,41,0.00,,,0.00,0,Wunderground v.1.15,2013-12-12 22:16:00,
2013-12-12 17:22:00,38.8,17.6,30.40,NNW,337,1.0,1.0,42,0.00,,,0.00,0,Wunderground v.1.15,2013-12-12 22:22:00,
2013-12-12 17:28:00,38.3,17.7,30.40,NNW,337,1.0,1.0,43,0.00,,,0.00,0,Wunderground v.1.15,2013-12-12 22:28:00,
2013-12-12 17:34:00,37.9,19.4,30.39,NNW,337,0.0,0.0,47,0.00,,,0.00,0,Wunderground v.1.15,2013-12-12 22:34:00,
2013-12-12 17:40:00,37.5,21.9,30.39,NNW,337,0.0,0.0,53,0.00,,,0.00,0,Wunderground v.1.15,2013-12-12 22:40:00,
2013-12-12 17:46:00,36.9,22.7,30.38,NNW,337,0.0,2.0,56,0.00,,,0.00,0,Wunderground v.1.15,2013-12-12 22:46:00,
2013-12-12 17:52:00,36.2,22.0,30.38,NNW,337,0.0,0.0,56,0.00,,,0.00,0,Wunderground v.1.15,2013-12-12 22:52:00,
2013-12-12 17:58:00,35.8,20.8,30.38,NNW,337,0.0,0.0,54,0.00,,,0.00,0,Wunderground v.1.15,2013-12-12 22:58:00,
2013-12-12 18:04:00,35.2,21.1,30.39,NNW,337,0.0,0.0,56,0.00,,,0.00,0,Wunderground v.1.15,2013-12-12 23:04:00,
2013-12-12 18:10:00,34.6,20.9,30.39,NNW,337,0.0,0.0,57,0.00,,,0.00,0,Wunderground v.1.15,2013-12-12 23:10:00,
2013-12-12 18:16:00,34.1,20.9,30.39,NNW,337,0.0,0.0,58,0.00,,,0.00,0,Wunderground v.1.15,2013-12-12 23:16:00,
2013-12-12 18:22:00,33.8,22.1,30.39,NNW,337,0.0,0.0,62,0.00,,,0.00,0,Wunderground v.1.15,2013-12-12 23:22:00,
2013-12-12 18:28:00,33.4,22.5,30.39,NNW,337,0.0,0.0,64,0.00,,,0.00,0,Wunderground v.1.15,2013-12-12 23:28:00,
2013-12-12 18:34:00,33.1,23.0,30.39,NNW,337,0.0,0.0,66,0.00,,,0.00,0,Wunderground v.1.15,2013-12-12 23:34:00,
2013-12-12 18:40:00,32.8,23.0,30.39,NNW,337,0.0,0.0,67,0.00,,,0.00,0,Wunderground v.1.15,2013-12-12 23:40:00,
2013-12-12 18:46:00,32.4,22.7,30.40,NNW,337,0.0,0.0,67,0.00,,,0.00,0,Wunderground v.1.15,2013-12-12 23:46:00,
2013-12-12 18:52:00,31.9,22.2,30.40,NNW,337,0.0,2.0,67,0.00,,,0.00,0,Wunderground v.1.15,2013-12-12 23:52:00,
2013-12-12 18:58:00,31.6,22.6,30.40,NNW,337,1.0,2.0,69,0.00,,,0.00,0,Wunderground v.1.15,2013-12-12 23:58:00,
2013-12-12 19:04:00,31.2,22.2,30.40,NNW,337,1.0,2.0,69,0.00,,,0.00,0,Wunderground v.1.15,2013-12-13 00:04:00,
2013-12-12 19:10:00,31.0,22.4,30.40,NNW,337,1.0,1.0,70,0.00,,,0.00,0,Wunderground v.1.15,2013-12-13 00:10:00,
2013-12-12 19:16:00,30.7,22.4,30.40,NNW,337,1.0,1.0,71,0.00,,,0.00,0,Wunderground v.1.15,2013-12-13 00:16:00,
2013-12-12 19:17:00,30.7,22.4,30.40,NNW,338,0.0,-999.0,71,0.00,,,0.00,0,Wunderground v.1.15,2013-12-13 00:17:00,
2013-12-12 19:20:00,30.7,22.4,30.40,N/A,-737280,0.0,-999.0,71,0.00,,,0.00,0,Wunderground v.1.15,2013-12-13 00:20:00,
2013-12-12 19:22:00,30.6,22.3,30.40,East,90,3.0,-999.0,71,0.00,,,0.00,0,Wunderground v.1.15,2013-12-13 00:22:00,
2013-12-12 19:25:00,30.6,22.3,30.40,East,90,2.0,-999.0,71,0.00,,,0.00,0,Wunderground v.1.15,2013-12-13 00:25:00,
2013-12-12 19:27:00,30.4,22.1,30.40,East,90,2.0,-999.0,71,0.00,,,0.00,0,Wunderground v.1.15,2013-12-13 00:27:00,
2013-12-12 19:30:00,30.4,22.1,30.40,East,90,1.0,-999.0,71,0.00,,,0.00,0,Wunderground v.1.15,2013-12-13 00:30:00,
2013-12-12 19:32:00,30.3,22.0,30.40,East,90,1.0,-999.0,71,0.00,,,0.00,0,Wunderground v.1.15,2013-12-13 00:32:00,
2013-12-12 19:35:00,30.1,22.2,30.40,N/A,-737280,0.0,-999.0,72,0.00,,,0.00,0,Wunderground v.1.15,2013-12-13 00:35:00,
2013-12-12 19:37:00,30.1,22.2,30.40,N/A,-737280,0.0,-999.0,72,0.00,,,0.00,0,Wunderground v.1.15,2013-12-13 00:37:00,
2013-12-12 19:40:00,30.0,22.1,30.40,N/A,-737280,0.0,-999.0,72,0.00,,,0.00,0,Wunderground v.1.15,2013-12-13 00:40:00,
2013-12-12 19:42:00,30.0,22.1,30.40,N/A,-737280,0.0,-999.0,72,0.00,,,0.00,0,Wunderground v.1.15,2013-12-13 00:42:00,
2013-12-12 19:45:00,29.8,21.9,30.40,N/A,-737280,0.0,-999.0,72,0.00,,,0.00,0,Wunderground v.1.15,2013-12-13 00:45:00,
2013-12-12 19:47:00,29.7,22.1,30.40,East,90,1.0,-999.0,73,0.00,,,0.00,0,Wunderground v.1.15,2013-12-13 00:47:00,
2013-12-12 19:50:00,29.5,21.9,30.40,N/A,-737280,0.0,-999.0,73,0.00,,,0.00,0,Wunderground v.1.15,2013-12-13 00:50:00,
2013-12-12 19:52:00,29.4,22.1,30.40,N/A,-737280,0.0,-999.0,74,0.00,,,0.00,0,Wunderground v.1.15,2013-12-13 00:52:00,
2013-12-12 19:55:00,29.4,22.1,30.40,N/A,-737280,0.0,-999.0,74,0.00,,,0.00,0,Wunderground v.1.15,2013-12-13 00:55:00,
2013-12-12 19:57:00,29.3,22.0,30.40,N/A,-737280,0.0,-999.0,74,0.00,,,0.00,0,Wunderground v.1.15,2013-12-13 00:57:00,
2013-12-12 20:00:00,29.3,22.0,30.40,N/A,-737280,0.0,-999.0,74,0.00,,,0.00,0,Wunderground v.1.15,2013-12-13 01:00:00,
2013-12-12 20:02:00,29.1,22.2,30.40,East,90,1.0,-999.0,75,0.00,,,0.00,0,Wunderground v.1.15,2013-12-13 01:02:00,
2013-12-12 20:05:00,29.1,22.2,30.40,N/A,-737280,0.0,-999.0,75,0.00,,,0.00,0,Wunderground v.1.15,2013-12-13 01:05:00,
2013-12-12 20:07:00,29.0,22.4,30.40,N/A,-737280,0.0,-999.0,76,0.00,,,0.00,0,Wunderground v.1.15,2013-12-13 01:07:00,
2013-12-12 20:10:00,29.0,22.4,30.40,N/A,-737280,0.0,-999.0,76,0.00,,,0.00,0,Wunderground v.1.15,2013-12-13 01:10:00,
2013-12-12 20:12:00,28.8,22.2,30.40,N/A,-737280,0.0,-999.0,76,0.00,,,0.00,0,Wunderground v.1.15,2013-12-13 01:12:00,
2013-12-12 20:15:00,28.8,22.2,30.40,N/A,-737280,0.0,-999.0,76,0.00,,,0.00,0,Wunderground v.1.15,2013-12-13 01:15:00,
2013-12-12 20:17:00,28.7,22.1,30.40,East,90,1.0,-999.0,76,0.00,,,0.00,0,Wunderground v.1.15,2013-12-13 01:17:00,
2013-12-12 20:20:00,28.7,22.1,30.40,East,90,1.0,-999.0,76,0.00,,,0.00,0,Wunderground v.1.15,2013-12-13 01:20:00,
2013-12-12 20:22:00,28.5,21.9,30.40,East,90,0.0,-999.0,76,0.00,,,0.00,0,Wunderground v.1.15,2013-12-13 01:22:00,
2013-12-12 20:25:00,28.5,22.2,30.40,East,90,1.0,-999.0,77,0.00,,,0.00,0,Wunderground v.1.15,2013-12-13 01:25:00,
2013-12-12 20:27:00,28.5,22.2,30.40,SSE,158,2.0,-999.0,77,0.00,,,0.00,0,Wunderground v.1.15,2013-12-13 01:27:00,
2013-12-12 20:30:00,28.4,22.1,30.41,SSE,158,2.0,-999.0,77,0.00,,,0.00,0,Wunderground v.1.15,2013-12-13 01:30:00,
2013-12-12 20:32:00,28.4,22.1,30.41,SSE,158,1.0,-999.0,77,0.00,,,0.00,0,Wunderground v.1.15,2013-12-13 01:32:00,
2013-12-12 20:35:00,28.4,22.1,30.41,SSE,158,0.0,-999.0,77,0.00,,,0.00,0,Wunderground v.1.15,2013-12-13 01:35:00,
2013-12-12 20:37:00,28.2,21.9,30.41,SSE,158,1.0,-999.0,77,0.00,,,0.00,0,Wunderground v.1.15,2013-12-13 01:37:00,
2013-12-12 20:40:00,28.2,21.9,30.41,SSE,158,1.0,-999.0,77,0.00,,,0.00,0,Wunderground v.1.15,2013-12-13 01:40:00,
2013-12-12 20:42:00,28.2,21.9,30.41,SSE,158,0.0,-999.0,77,0.00,,,0.00,0,Wunderground v.1.15,2013-12-13 01:42:00,
2013-12-12 20:45:00,28.1,21.8,30.41,SSE,158,0.0,-999.0,77,0.00,,,0.00,0,Wunderground v.1.15,2013-12-13 01:45:00,
2013-12-12 20:47:00,28.1,21.8,30.41,SSE,158,1.0,-999.0,77,0.00,,,0.00,0,Wunderground v.1.15,2013-12-13 01:47:00,
2013-12-12 20:50:00,28.1,21.8,30.41,SSE,158,1.0,-999.0,77,0.00,,,0.00,0,Wunderground v.1.15,2013-12-13 01:50:00,
2013-12-12 20:52:00,28.1,21.8,30.41,SSE,158,1.0,-999.0,77,0.00,,,0.00,0,Wunderground v.1.15,2013-12-13 01:52:00,
2013-12-12 20:55:00,28.1,21.8,30.41,N/A,-737280,0.0,-999.0,77,0.00,,,0.00,0,Wunderground v.1.15,2013-12-13 01:55:00,
2013-12-12 21:00:00,27.9,21.6,30.40,N/A,-737280,0.0,-999.0,77,0.00,,,0.00,0,Wunderground v.1.15,2013-12-13 02:00:00,
2013-12-12 21:02:00,27.9,21.9,30.40,SSE,158,1.0,-999.0,78,0.00,,,0.00,0,Wunderground v.1.15,2013-12-13 02:02:00,
2013-12-12 21:05:00,27.9,21.9,30.40,SSE,158,0.0,-999.0,78,0.00,,,0.00,0,Wunderground v.1.15,2013-12-13 02:05:00,
2013-12-12 21:07:00,27.8,21.8,30.40,N/A,-737280,0.0,-999.0,78,0.00,,,0.00,0,Wunderground v.1.15,2013-12-13 02:07:00,
2013-12-12 21:10:00,27.8,21.8,30.40,N/A,-737280,0.0,-999.0,78,0.00,,,0.00,0,Wunderground v.1.15,2013-12-13 02:10:00,
2013-12-12 21:12:00,27.8,21.8,30.40,N/A,-737280,0.0,-999.0,78,0.00,,,0.00,0,Wunderground v.1.15,2013-12-13 02:12:00,
2013-12-12 21:15:00,27.6,21.9,30.39,N/A,-737280,0.0,-999.0,79,0.00,,,0.00,0,Wunderground v.1.15,2013-12-13 02:15:00,
2013-12-12 21:17:00,27.6,21.9,30.39,N/A,-737280,0.0,-999.0,79,0.00,,,0.00,0,Wunderground v.1.15,2013-12-13 02:17:00,
2013-12-12 21:20:00,27.5,21.8,30.39,N/A,-737280,0.0,-999.0,79,0.00,,,0.00,0,Wunderground v.1.15,2013-12-13 02:20:00,
2013-12-12 21:22:00,27.5,21.8,30.39,N/A,-737280,0.0,-999.0,79,0.00,,,0.00,0,Wunderground v.1.15,2013-12-13 02:22:00,
2013-12-12 21:25:00,27.3,21.6,30.39,N/A,-737280,0.0,-999.0,79,0.00,,,0.00,0,Wunderground v.1.15,2013-12-13 02:25:00,
2013-12-12 21:27:00,27.3,21.6,30.39,N/A,-737280,0.0,-999.0,79,0.00,,,0.00,0,Wunderground v.1.15,2013-12-13 02:27:00,
2013-12-12 21:30:00,27.2,21.8,30.39,N/A,-737280,0.0,-999.0,80,0.00,,,0.00,0,Wunderground v.1.15,2013-12-13 02:30:00,
2013-12-12 21:32:00,27.2,21.8,30.39,SSE,158,1.0,-999.0,80,0.00,,,0.00,0,Wunderground v.1.15,2013-12-13 02:32:00,
2013-12-12 21:35:00,27.2,21.8,30.39,SSE,158,1.0,-999.0,80,0.00,,,0.00,0,Wunderground v.1.15,2013-12-13 02:35:00,
2013-12-12 21:37:00,27.0,21.7,30.39,SSE,158,1.0,-999.0,80,0.00,,,0.00,0,Wunderground v.1.15,2013-12-13 02:37:00,
2013-12-12 21:40:00,27.0,21.9,30.39,SSE,158,0.0,-999.0,81,0.00,,,0.00,0,Wunderground v.1.15,2013-12-13 02:40:00,
2013-12-12 21:42:00,27.0,21.9,30.39,N/A,-737280,0.0,-999.0,81,0.00,,,0.00,0,Wunderground v.1.15,2013-12-13 02:42:00,
2013-12-12 21:45:00,26.9,22.1,30.39,SSE,158,2.0,-999.0,82,0.00,,,0.00,0,Wunderground v.1.15,2013-12-13 02:45:00,
2013-12-12 21:47:00,26.9,22.1,30.39,SSE,158,2.0,-999.0,82,0.00,,,0.00,0,Wunderground v.1.15,2013-12-13 02:47:00,
2013-12-12 21:50:00,26.9,22.1,30.39,SSE,158,1.0,-999.0,82,0.00,,,0.00,0,Wunderground v.1.15,2013-12-13 02:50:00,
2013-12-12 21:52:00,26.9,22.1,30.39,SSE,158,1.0,-999.0,82,0.00,,,0.00,0,Wunderground v.1.15,2013-12-13 02:52:00,
2013-12-12 21:55:00,26.7,22.2,30.39,SSE,158,0.0,-999.0,83,0.00,,,0.00,0,Wunderground v.1.15,2013-12-13 02:55:00,
2013-12-12 21:57:00,26.7,21.9,30.39,N/A,-737280,0.0,-999.0,82,0.00,,,0.00,0,Wunderground v.1.15,2013-12-13 02:57:00,
2013-12-12 22:00:00,26.7,21.9,30.39,N/A,-737280,0.0,-999.0,82,0.00,,,0.00,0,Wunderground v.1.15,2013-12-13 03:00:00,
2013-12-12 22:02:00,26.7,21.9,30.39,N/A,-737280,0.0,-999.0,82,0.00,,,0.00,0,Wunderground v.1.15,2013-12-13 03:02:00,
2013-12-12 22:05:00,26.6,21.8,30.39,N/A,-737280,0.0,-999.0,82,0.00,,,0.00,0,Wunderground v.1.15,2013-12-13 03:05:00,
2013-12-12 22:07:00,26.6,21.8,30.39,N/A,-737280,0.0,-999.0,82,0.00,,,0.00,0,Wunderground v.1.15,2013-12-13 03:07:00,
2013-12-12 22:10:00,26.6,21.8,30.39,N/A,-737280,0.0,-999.0,82,0.00,,,0.00,0,Wunderground v.1.15,2013-12-13 03:10:00,
2013-12-12 22:12:00,26.4,21.7,30.39,N/A,-737280,0.0,-999.0,82,0.00,,,0.00,0,Wunderground v.1.15,2013-12-13 03:12:00,
2013-12-12 22:15:00,26.4,21.7,30.38,N/A,-737280,0.0,-999.0,82,0.00,,,0.00,0,Wunderground v.1.15,2013-12-13 03:15:00,
2013-12-12 22:17:00,26.3,21.6,30.38,N/A,-737280,0.0,-999.0,82,0.00,,,0.00,0,Wunderground v.1.15,2013-12-13 03:17:00,
2013-12-12 22:20:00,26.3,21.8,30.38,N/A,-737280,0.0,-999.0,83,0.00,,,0.00,0,Wunderground v.1.15,2013-12-13 03:20:00,
2013-12-12 22:22:00,26.3,21.8,30.38,N/A,-737280,0.0,-999.0,83,0.00,,,0.00,0,Wunderground v.1.15,2013-12-13 03:22:00,
2013-12-12 22:25:00,26.3,21.8,30.38,N/A,-737280,0.0,-999.0,83,0.00,,,0.00,0,Wunderground v.1.15,2013-12-13 03:25:00,
2013-12-12 22:27:00,26.3,21.8,30.38,N/A,-737280,0.0,-999.0,83,0.00,,,0.00,0,Wunderground v.1.15,2013-12-13 03:27:00,
2013-12-12 22:30:00,26.3,21.8,30.38,N/A,-737280,0.0,-999.0,83,0.00,,,0.00,0,Wunderground v.1.15,2013-12-13 03:30:00,
2013-12-12 22:32:00,26.1,21.6,30.38,N/A,-737280,0.0,-999.0,83,0.00,,,0.00,0,Wunderground v.1.15,2013-12-13 03:32:00,
2013-12-12 22:35:00,26.1,21.6,30.38,N/A,-737280,0.0,-999.0,83,0.00,,,0.00,0,Wunderground v.1.15,2013-12-13 03:35:00,
2013-12-12 22:37:00,26.1,21.6,30.38,N/A,-737280,0.0,-999.0,83,0.00,,,0.00,0,Wunderground v.1.15,2013-12-13 03:37:00,
2013-12-12 22:40:00,26.1,21.9,30.38,N/A,-737280,0.0,-999.0,84,0.00,,,0.00,0,Wunderground v.1.15,2013-12-13 03:40:00,
2013-12-12 22:42:00,26.0,21.8,30.38,N/A,-737280,0.0,-999.0,84,0.00,,,0.00,0,Wunderground v.1.15,2013-12-13 03:42:00,
2013-12-12 22:45:00,26.0,21.8,30.38,N/A,-737280,0.0,-999.0,84,0.00,,,0.00,0,Wunderground v.1.15,2013-12-13 03:45:00,
2013-12-12 22:47:00,25.8,21.6,30.38,N/A,-737280,0.0,-999.0,84,0.00,,,0.00,0,Wunderground v.1.15,2013-12-13 03:47:00,
2013-12-12 22:50:00,25.8,21.6,30.38,N/A,-737280,0.0,-999.0,84,0.00,,,0.00,0,Wunderground v.1.15,2013-12-13 03:50:00,
2013-12-12 22:52:00,25.8,21.6,30.38,N/A,-737280,0.0,-999.0,84,0.00,,,0.00,0,Wunderground v.1.15,2013-12-13 03:52:00,
2013-12-12 22:55:00,25.7,21.5,30.38,N/A,-737280,0.0,-999.0,84,0.00,,,0.00,0,Wunderground v.1.15,2013-12-13 03:55:00,
2013-12-12 22:57:00,25.7,21.5,30.38,N/A,-737280,0.0,-999.0,84,0.00,,,0.00,0,Wunderground v.1.15,2013-12-13 03:57:00,
2013-12-12 23:00:00,25.7,21.5,30.38,N/A,-737280,0.0,-999.0,84,0.00,,,0.00,0,Wunderground v.1.15,2013-12-13 04:00:00,
2013-12-12 23:02:00,25.7,21.5,30.38,N/A,-737280,0.0,-999.0,84,0.00,,,0.00,0,Wunderground v.1.15,2013-12-13 04:02:00,
2013-12-12 23:05:00,25.6,21.4,30.38,N/A,-737280,0.0,-999.0,84,0.00,,,0.00,0,Wunderground v.1.15,2013-12-13 04:05:00,
2013-12-12 23:07:00,25.6,21.4,30.38,N/A,-737280,0.0,-999.0,84,0.00,,,0.00,0,Wunderground v.1.15,2013-12-13 04:07:00,
2013-12-12 23:10:00,25.6,21.4,30.38,N/A,-737280,0.0,-999.0,84,0.00,,,0.00,0,Wunderground v.1.15,2013-12-13 04:10:00,
2013-12-12 23:12:00,25.4,21.5,30.38,SSE,158,1.0,-999.0,85,0.00,,,0.00,0,Wunderground v.1.15,2013-12-13 04:12:00,
2013-12-12 23:15:00,25.4,21.5,30.38,SSE,158,0.0,-999.0,85,0.00,,,0.00,0,Wunderground v.1.15,2013-12-13 04:15:00,
2013-12-12 23:17:00,25.4,21.5,30.38,N/A,-737280,0.0,-999.0,85,0.00,,,0.00,0,Wunderground v.1.15,2013-12-13 04:17:00,
2013-12-12 23:20:00,25.3,21.4,30.38,N/A,-737280,0.0,-999.0,85,0.00,,,0.00,0,Wunderground v.1.15,2013-12-13 04:20:00,
2013-12-12 23:22:00,25.3,21.4,30.38,N/A,-737280,0.0,-999.0,85,0.00,,,0.00,0,Wunderground v.1.15,2013-12-13 04:22:00,
2013-12-12 23:25:00,25.3,21.4,30.38,N/A,-737280,0.0,-999.0,85,0.00,,,0.00,0,Wunderground v.1.15,2013-12-13 04:25:00,
2013-12-12 23:27:00,25.3,21.7,30.38,N/A,-737280,0.0,-999.0,86,0.00,,,0.00,0,Wunderground v.1.15,2013-12-13 04:27:00,
2013-12-12 23:30:00,25.3,21.7,30.38,N/A,-737280,0.0,-999.0,86,0.00,,,0.00,0,Wunderground v.1.15,2013-12-13 04:30:00,
2013-12-12 23:32:00,25.3,21.7,30.38,SSE,158,1.0,-999.0,86,0.00,,,0.00,0,Wunderground v.1.15,2013-12-13 04:32:00,
2013-12-12 23:35:00,25.3,21.7,30.38,N/A,-737280,0.0,-999.0,86,0.00,,,0.00,0,Wunderground v.1.15,2013-12-13 04:35:00,
2013-12-12 23:37:00,25.3,21.7,30.38,N/A,-737280,0.0,-999.0,86,0.00,,,0.00,0,Wunderground v.1.15,2013-12-13 04:37:00,
2013-12-12 23:40:00,25.3,21.7,30.38,N/A,-737280,0.0,-999.0,86,0.00,,,0.00,0,Wunderground v.1.15,2013-12-13 04:40:00,
2013-12-12 23:42:00,25.1,21.5,30.38,N/A,-737280,0.0,-999.0,86,0.00,,,0.00,0,Wunderground v.1.15,2013-12-13 04:42:00,
2013-12-12 23:45:00,25.1,21.5,30.38,N/A,-737280,0.0,-999.0,86,0.00,,,0.00,0,Wunderground v.1.15,2013-12-13 04:45:00,
2013-12-12 23:47:00,25.0,21.4,30.38,N/A,-737280,0.0,-999.0,86,0.00,,,0.00,0,Wunderground v.1.15,2013-12-13 04:47:00,
2013-12-12 23:50:00,25.0,21.4,30.38,N/A,-737280,0.0,-999.0,86,0.00,,,0.00,0,Wunderground v.1.15,2013-12-13 04:50:00,
2013-12-12 23:52:00,24.8,21.2,30.38,N/A,-737280,0.0,-999.0,86,0.00,,,0.00,0,Wunderground v.1.15,2013-12-13 04:52:00,
2013-12-12 23:55:00,24.8,21.2,30.38,N/A,-737280,0.0,-999.0,86,0.00,,,0.00,0,Wunderground v.1.15,2013-12-13 04:55:00,
2013-12-12 23:57:00,24.8,21.2,30.38,N/A,-737280,0.0,-999.0,86,0.00,,,0.00,0,Wunderground v.1.15,2013-12-13 04:57:00,